Time;durP1;ratioP1;P1;durP2;ratioP2;P2;SDS_P1;SDS_P2;PMS_P1;PMS_P2;Temp;Humidity;BMP_temperature;BMP_pressure;BME280_temperature;BME280_humidity;BME280_pressure;Samples;Min_cycle;Max_cycle;Signal;HPM_P1;HPM_P2
2021/04/03 00:02:12;;;;;;;1.13;0.53;;;;;;;;;;5113396;28;20471;-55
2021/04/03 00:04:39;;;;;;;3.07;0.83;;;;;;;;;;5113333;28;20055;-55
2021/04/03 00:07:06;;;;;;;4.53;0.80;;;;;;;;;;5113203;28;20020;-55
2021/04/03 00:09:33;;;;;;;1.40;0.77;;;;;;;;;;5113159;28;20429;-55
2021/04/03 00:11:59;;;;;;;1.30;0.70;;;;;;;;;;5113187;28;20020;-55
2021/04/03 00:14:39;;;;;;;1.33;0.70;;;;;;;;;;5112902;28;20130;-55
2021/04/03 00:17:06;;;;;;;0.93;0.50;;;;;;;;;;5113201;28;20522;-55
2021/04/03 00:19:33;;;;;;;0.97;0.60;;;;;;;;;;5113126;28;20382;-55
2021/04/03 00:22:00;;;;;;;0.50;0.50;;;;;;;;;;5113284;28;20024;-55
2021/04/03 00:24:26;;;;;;;0.87;0.50;;;;;;;;;;5113149;28;20054;-55
2021/04/03 00:26:53;;;;;;;1.03;0.50;;;;;;;;;;5113207;28;20031;-55
2021/04/03 00:29:20;;;;;;;1.77;0.50;;;;;;;;;;5113145;28;20485;-55
2021/04/03 00:31:47;;;;;;;2.40;1.17;;;;;;;;;;5113076;28;20481;-55
2021/04/03 00:34:13;;;;;;;1.17;0.60;;;;;;;;;;5113187;28;20032;-55
2021/04/03 00:36:40;;;;;;;2.30;0.90;;;;;;;;;;5113009;28;20024;-56
2021/04/03 00:39:07;;;;;;;2.47;0.93;;;;;;;;;;5112915;28;20028;-55
2021/04/03 00:41:34;;;;;;;2.23;1.07;;;;;;;;;;5113065;28;20020;-55
2021/04/03 00:44:01;;;;;;;2.60;0.90;;;;;;;;;;5112918;28;20023;-55
2021/04/03 00:46:28;;;;;;;2.30;0.77;;;;;;;;;;5112913;28;20046;-55
2021/04/03 00:48:54;;;;;;;2.33;0.73;;;;;;;;;;5112864;28;20508;-54
2021/04/03 00:51:21;;;;;;;2.37;0.77;;;;;;;;;;5112934;28;20535;-55
2021/04/03 00:53:48;;;;;;;2.13;0.70;;;;;;;;;;5112950;28;20039;-55
2021/04/03 00:56:15;;;;;;;2.40;0.53;;;;;;;;;;5112947;28;20031;-54
2021/04/03 00:58:42;;;;;;;1.07;0.47;;;;;;;;;;5112769;28;20092;-54
2021/04/03 01:01:08;;;;;;;1.43;1.33;;;;;;;;;;5112948;28;20161;-55
2021/04/03 01:03:35;;;;;;;2.87;0.70;;;;;;;;;;5112858;28;20031;-55
2021/04/03 01:06:02;;;;;;;1.43;0.60;;;;;;;;;;5112703;28;20028;-55
2021/04/03 01:08:29;;;;;;;1.17;0.70;;;;;;;;;;5112815;28;20095;-55
2021/04/03 01:10:56;;;;;;;1.10;0.60;;;;;;;;;;5112696;28;20028;-55
2021/04/03 01:13:38;;;;;;;0.67;0.50;;;;;;;;;;5112299;28;20030;-55
2021/04/03 01:16:14;;;;;;;0.63;0.50;;;;;;;;;;5112807;28;20031;-54
2021/04/03 01:18:59;;;;;;;0.73;0.50;;;;;;;;;;5112612;28;20486;-55
2021/04/03 01:21:29;;;;;;;1.02;0.70;;;;;;;;;;5112845;28;20035;-54
2021/04/03 01:24:14;;;;;;;1.80;0.70;;;;;;;;;;5116145;28;20027;-55
2021/04/03 01:26:41;;;;;;;;;;;;;;;;;;5116582;28;20075;-55
2021/04/03 01:29:16;;;;;;;2.43;0.40;;;;;;;;;;5116229;28;19904;-55
2021/04/03 01:31:44;;;;;;;1.23;0.60;;;;;;;;;;5116129;28;20477;-54
2021/04/03 01:34:15;;;;;;;1.33;0.50;;;;;;;;;;5116227;28;20016;-55
2021/04/03 01:36:43;;;;;;;1.73;0.57;;;;;;;;;;5116306;28;20031;-55
2021/04/03 01:39:15;;;;;;;1.60;0.67;;;;;;;;;;5115955;28;20035;-55
2021/04/03 01:41:43;;;;;;;3.23;0.60;;;;;;;;;;5115944;28;20024;-55
2021/04/03 01:44:12;;;;;;;0.60;0.30;;;;;;;;;;5115983;28;20038;-54
2021/04/03 01:46:39;;;;;;;1.00;0.47;;;;;;;;;;5115825;28;20386;-55
2021/04/03 01:49:11;;;;;;;2.30;0.70;;;;;;;;;;5115893;28;20481;-55
2021/04/03 01:51:40;;;;;;;1.13;0.63;;;;;;;;;;5115827;28;20539;-55
2021/04/03 01:54:10;;;;;;;2.27;0.90;;;;;;;;;;5115934;28;20028;-55
2021/04/03 01:56:37;;;;;;;2.00;0.77;;;;;;;;;;5116166;28;20027;-55
2021/04/03 01:59:06;;;;;;;2.57;0.70;;;;;;;;;;5115600;28;20508;-55
2021/04/03 02:01:35;;;;;;;2.70;1.30;;;;;;;;;;5115566;28;20082;-55
2021/04/03 02:04:02;;;;;;;2.43;0.93;;;;;;;;;;5115524;28;20028;-55
2021/04/03 02:06:29;;;;;;;3.60;1.07;;;;;;;;;;5115426;28;20068;-55
2021/04/03 02:08:57;;;;;;;3.07;1.33;;;;;;;;;;5115372;28;20027;-55
2021/04/03 02:11:24;;;;;;;3.90;1.33;;;;;;;;;;5115382;28;20097;-55
2021/04/03 02:13:51;;;;;;;1.43;0.80;;;;;;;;;;5114969;27;20047;-55
2021/04/03 02:16:18;;;;;;;1.43;0.70;;;;;;;;;;5115384;28;20027;-55
2021/04/03 02:18:46;;;;;;;1.63;0.90;;;;;;;;;;5115137;28;20027;-55
2021/04/03 02:21:12;;;;;;;3.90;0.93;;;;;;;;;;5115181;28;20039;-55
2021/04/03 02:23:39;;;;;;;1.33;0.80;;;;;;;;;;5115123;28;20016;-55
2021/04/03 02:26:06;;;;;;;2.00;0.70;;;;;;;;;;5115128;28;20060;-55
2021/04/03 02:28:34;;;;;;;4.20;1.43;;;;;;;;;;5115108;28;20023;-55
2021/04/03 02:31:01;;;;;;;2.27;1.10;;;;;;;;;;5114979;28;20129;-55
2021/04/03 02:33:28;;;;;;;1.70;0.90;;;;;;;;;;5114796;28;20418;-55
2021/04/03 02:35:54;;;;;;;2.90;0.80;;;;;;;;;;5114876;28;20023;-55
2021/04/03 02:38:21;;;;;;;1.50;0.67;;;;;;;;;;5114765;28;20027;-55
2021/04/03 02:40:48;;;;;;;1.17;0.87;;;;;;;;;;5114805;28;20032;-55
2021/04/03 02:43:18;;;;;;;3.57;1.03;;;;;;;;;;5114746;28;20023;-54
2021/04/03 02:45:52;;;;;;;2.53;0.90;;;;;;;;;;5114697;28;20059;-55
2021/04/03 02:48:20;;;;;;;1.90;0.80;;;;;;;;;;5114582;28;20015;-55
2021/04/03 02:50:50;;;;;;;3.20;1.00;;;;;;;;;;5114609;28;20024;-55
2021/04/03 02:53:19;;;;;;;2.17;0.70;;;;;;;;;;5114887;28;20106;-55
2021/04/03 02:55:48;;;;;;;1.00;0.60;;;;;;;;;;5114438;28;20035;-55
2021/04/03 02:58:25;;;;;;;1.30;0.60;;;;;;;;;;5114471;28;20428;-55
2021/04/03 03:00:52;;;;;;;3.40;0.80;;;;;;;;;;5114432;28;20035;-55
2021/04/03 03:03:19;;;;;;;0.93;0.60;;;;;;;;;;5114335;28;20031;-55
2021/04/03 03:05:47;;;;;;;2.60;0.83;;;;;;;;;;5114349;28;20318;-55
2021/04/03 03:08:14;;;;;;;0.90;0.60;;;;;;;;;;5114198;28;20034;-55
2021/04/03 03:10:41;;;;;;;1.70;0.60;;;;;;;;;;5114182;28;20073;-55
2021/04/03 03:13:09;;;;;;;2.93;0.87;;;;;;;;;;5114168;28;20035;-55
2021/04/03 03:15:36;;;;;;;2.30;0.60;;;;;;;;;;5113837;28;20113;-55
2021/04/03 03:18:04;;;;;;;2.67;1.00;;;;;;;;;;5114131;28;20116;-55
2021/04/03 03:20:31;;;;;;;1.77;0.70;;;;;;;;;;5114160;28;20098;-55
2021/04/03 03:22:58;;;;;;;0.90;0.67;;;;;;;;;;5114065;28;20041;-55
2021/04/03 03:25:26;;;;;;;1.80;0.60;;;;;;;;;;5114129;28;20028;-55
2021/04/03 03:27:54;;;;;;;1.50;0.60;;;;;;;;;;5114003;28;20023;-55
2021/04/03 03:30:22;;;;;;;1.03;0.50;;;;;;;;;;5113842;28;20454;-55
2021/04/03 03:32:48;;;;;;;2.20;0.67;;;;;;;;;;5114102;28;20138;-55
2021/04/03 03:35:16;;;;;;;1.23;0.60;;;;;;;;;;5113836;28;20031;-54
2021/04/03 03:37:47;;;;;;;1.50;0.57;;;;;;;;;;5113894;28;20020;-54
2021/04/03 03:40:15;;;;;;;3.67;0.60;;;;;;;;;;5113675;28;20084;-55
2021/04/03 03:42:42;;;;;;;1.93;0.80;;;;;;;;;;5113673;28;20035;-55
2021/04/03 03:45:10;;;;;;;1.27;0.60;;;;;;;;;;5113079;28;20390;-55
2021/04/03 03:47:37;;;;;;;1.80;0.77;;;;;;;;;;5113631;28;20106;-55
2021/04/03 03:50:05;;;;;;;1.77;0.80;;;;;;;;;;5113593;28;20034;-55
2021/04/03 03:52:32;;;;;;;1.00;0.70;;;;;;;;;;5113554;28;20034;-55
2021/04/03 03:54:59;;;;;;;1.00;0.67;;;;;;;;;;5113495;28;20485;-54
2021/04/03 03:57:25;;;;;;;1.10;0.60;;;;;;;;;;5113903;28;20466;-54
2021/04/03 03:59:52;;;;;;;2.33;0.90;;;;;;;;;;5113404;28;20110;-55
2021/04/03 04:02:19;;;;;;;1.50;0.60;;;;;;;;;;5113434;28;20026;-55
2021/04/03 04:04:46;;;;;;;1.47;0.80;;;;;;;;;;5113379;28;20028;-55
2021/04/03 04:07:13;;;;;;;1.73;0.70;;;;;;;;;;5113374;28;20028;-54
2021/04/03 04:09:41;;;;;;;1.07;0.70;;;;;;;;;;5113418;28;20028;-55
2021/04/03 04:12:09;;;;;;;1.13;0.70;;;;;;;;;;5113363;28;20032;-55
2021/04/03 04:14:36;;;;;;;1.50;0.80;;;;;;;;;;5112982;28;20135;-55
2021/04/03 04:17:03;;;;;;;1.33;0.60;;;;;;;;;;5113225;28;20059;-55
2021/04/03 04:19:30;;;;;;;1.30;0.60;;;;;;;;;;5113400;28;20071;-55
2021/04/03 04:21:57;;;;;;;1.40;0.60;;;;;;;;;;5113205;28;20441;-55
2021/04/03 04:24:24;;;;;;;1.50;0.80;;;;;;;;;;5113106;28;20028;-55
2021/04/03 04:26:52;;;;;;;1.90;0.73;;;;;;;;;;5113106;28;20024;-54
2021/04/03 04:29:19;;;;;;;1.47;0.83;;;;;;;;;;5113180;28;20102;-55
2021/04/03 04:31:46;;;;;;;2.13;0.77;;;;;;;;;;5113129;28;20023;-55
2021/04/03 04:34:12;;;;;;;1.40;0.70;;;;;;;;;;5113206;28;20036;-55
2021/04/03 04:36:39;;;;;;;1.17;0.70;;;;;;;;;;5113009;28;20023;-55
2021/04/03 04:39:06;;;;;;;4.30;0.80;;;;;;;;;;5113019;28;20036;-54
2021/04/03 04:41:33;;;;;;;1.20;0.60;;;;;;;;;;5113038;28;20020;-55
2021/04/03 04:43:59;;;;;;;1.20;0.60;;;;;;;;;;5113103;28;20051;-55
2021/04/03 04:46:26;;;;;;;0.70;0.50;;;;;;;;;;5112980;28;20028;-54
2021/04/03 04:48:53;;;;;;;0.97;0.60;;;;;;;;;;5112974;28;20023;-54
2021/04/03 04:51:20;;;;;;;1.80;0.80;;;;;;;;;;5112938;28;20039;-54
2021/04/03 04:53:47;;;;;;;0.90;0.47;;;;;;;;;;5112942;28;20019;-54
2021/04/03 04:56:13;;;;;;;2.67;1.10;;;;;;;;;;5112792;28;20039;-55
2021/04/03 04:58:40;;;;;;;2.50;0.80;;;;;;;;;;5116059;28;20039;-55
2021/04/03 05:01:07;;;;;;;1.00;0.60;;;;;;;;;;5116760;28;20306;-55
2021/04/03 05:03:34;;;;;;;1.87;0.93;;;;;;;;;;5116657;28;20024;-55
2021/04/03 05:06:00;;;;;;;1.03;0.63;;;;;;;;;;5116553;28;20031;-55
2021/04/03 05:08:27;;;;;;;1.80;0.97;;;;;;;;;;5116692;28;20102;-54
2021/04/03 05:10:54;;;;;;;3.03;1.60;;;;;;;;;;5116579;28;20386;-55
2021/04/03 05:13:21;;;;;;;1.17;0.80;;;;;;;;;;5116456;28;20030;-55
2021/04/03 05:15:48;;;;;;;1.87;0.90;;;;;;;;;;5116129;27;20051;-54
2021/04/03 05:18:14;;;;;;;1.43;0.70;;;;;;;;;;5116454;28;20028;-55
2021/04/03 05:20:41;;;;;;;2.90;1.10;;;;;;;;;;5116405;28;20031;-55
2021/04/03 05:23:08;;;;;;;1.20;0.63;;;;;;;;;;5116314;28;20448;-55
2021/04/03 05:25:34;;;;;;;2.20;0.97;;;;;;;;;;5116224;28;20287;-55
2021/04/03 05:28:01;;;;;;;2.97;0.97;;;;;;;;;;5116291;28;20031;-55
2021/04/03 05:30:28;;;;;;;2.40;0.80;;;;;;;;;;5116096;28;20741;-54
2021/04/03 05:32:55;;;;;;;4.33;0.83;;;;;;;;;;5116190;28;20236;-55
2021/04/03 05:35:22;;;;;;;4.27;0.97;;;;;;;;;;5116115;28;20252;-55
2021/04/03 05:37:48;;;;;;;1.63;0.80;;;;;;;;;;5116131;28;20244;-54
2021/04/03 05:40:15;;;;;;;1.83;0.83;;;;;;;;;;5116035;28;20315;-56
2021/04/03 05:42:45;;;;;;;2.80;0.70;;;;;;;;;;5116373;28;20772;-55
2021/04/03 05:45:15;;;;;;;2.03;0.93;;;;;;;;;;5115955;28;20248;-55
2021/04/03 05:47:42;;;;;;;4.20;0.90;;;;;;;;;;5115877;28;20251;-55
2021/04/03 05:50:13;;;;;;;3.23;0.80;;;;;;;;;;5115797;28;20255;-54
2021/04/03 05:52:40;;;;;;;1.83;0.83;;;;;;;;;;5115897;28;20433;-55
2021/04/03 05:55:09;;;;;;;1.87;0.60;;;;;;;;;;5115693;28;20252;-55
2021/04/03 05:57:36;;;;;;;2.27;0.90;;;;;;;;;;5115715;28;20270;-55
2021/04/03 06:00:07;;;;;;;3.47;0.80;;;;;;;;;;5115621;28;20287;-55
2021/04/03 06:02:38;;;;;;;1.67;0.80;;;;;;;;;;5115718;28;20248;-55
2021/04/03 06:05:06;;;;;;;1.53;0.77;;;;;;;;;;5115491;28;20258;-55
2021/04/03 06:07:33;;;;;;;3.17;1.20;;;;;;;;;;5115110;28;20617;-55
2021/04/03 06:10:01;;;;;;;5.57;1.20;;;;;;;;;;5115364;28;20259;-54
2021/04/03 06:12:38;;;;;;;3.17;0.90;;;;;;;;;;5115664;28;20339;-55
2021/04/03 06:15:06;;;;;;;2.00;0.87;;;;;;;;;;5114916;28;20346;-55
2021/04/03 06:17:33;;;;;;;2.17;1.37;;;;;;;;;;5115282;28;20343;-55
2021/04/03 06:20:00;;;;;;;1.60;0.90;;;;;;;;;;5115230;28;20283;-55
2021/04/03 06:22:26;;;;;;;2.57;1.40;;;;;;;;;;5115220;28;20248;-55
2021/04/03 06:25:04;;;;;;;3.47;1.10;;;;;;;;;;5115085;28;20343;-55
2021/04/03 06:27:31;;;;;;;2.53;1.03;;;;;;;;;;5115136;28;20244;-55
2021/04/03 06:29:58;;;;;;;3.50;1.10;;;;;;;;;;5114987;28;20339;-55
2021/04/03 06:32:26;;;;;;;2.27;1.17;;;;;;;;;;5114927;28;20801;-55
2021/04/03 06:34:54;;;;;;;2.83;1.00;;;;;;;;;;5114833;28;20252;-55
2021/04/03 06:37:27;;;;;;;4.73;1.27;;;;;;;;;;5115116;28;20238;-54
2021/04/03 06:39:56;;;;;;;1.93;0.80;;;;;;;;;;5114803;28;20283;-54
2021/04/03 06:42:41;;;;;;;2.23;1.13;;;;;;;;;;5114842;28;20252;-55
2021/04/03 06:45:24;;;;;;;5.50;1.27;;;;;;;;;;5114806;28;20256;-54
2021/04/03 06:47:51;;;;;;;2.47;1.20;;;;;;;;;;5114689;28;20031;-54
2021/04/03 06:50:22;;;;;;;2.50;1.10;;;;;;;;;;5114599;28;20338;-52
2021/04/03 06:52:49;;;;;;;3.40;1.20;;;;;;;;;;5114626;28;20321;-52
2021/04/03 06:55:17;;;;;;;4.07;1.93;;;;;;;;;;5114457;28;20244;-52
2021/04/03 06:57:45;;;;;;;3.37;1.20;;;;;;;;;;5114470;28;20288;-52
2021/04/03 07:00:13;;;;;;;2.47;1.30;;;;;;;;;;5114252;28;20699;-52
2021/04/03 07:02:45;;;;;;;4.43;1.20;;;;;;;;;;5114541;28;20280;-52
2021/04/03 07:05:14;;;;;;;3.37;1.00;;;;;;;;;;5114295;28;20268;-52
2021/04/03 07:07:43;;;;;;;3.73;1.27;;;;;;;;;;5114236;28;20291;-52
2021/04/03 07:10:13;;;;;;;2.13;1.00;;;;;;;;;;5114616;28;20251;-52
2021/04/03 07:12:40;;;;;;;4.27;1.30;;;;;;;;;;5114260;28;20831;-52
2021/04/03 07:15:08;;;;;;;2.00;1.10;;;;;;;;;;5113806;27;20268;-52
2021/04/03 07:17:44;;;;;;;1.57;0.97;;;;;;;;;;5114076;28;20267;-52
2021/04/03 07:20:15;;;;;;;4.63;1.20;;;;;;;;;;5113893;28;20280;-52
2021/04/03 07:22:47;;;;;;;1.70;0.97;;;;;;;;;;5113956;28;20615;-52
2021/04/03 07:25:14;;;;;;;2.07;1.00;;;;;;;;;;5114009;28;20256;-52
2021/04/03 07:27:42;;;;;;;2.57;1.13;;;;;;;;;;5113944;28;20256;-52
2021/04/03 07:30:09;;;;;;;2.63;0.70;;;;;;;;;;5113881;28;20302;-52
2021/04/03 07:32:44;;;;;;;5.17;1.57;;;;;;;;;;5114005;28;20244;-52
2021/04/03 07:35:24;;;;;;;2.08;0.90;;;;;;;;;;5113801;28;20305;-52
2021/04/03 07:37:52;;;;;;;5.77;0.87;;;;;;;;;;5113815;28;20631;-52
2021/04/03 07:40:24;;;;;;;4.00;1.17;;;;;;;;;;5113714;28;20315;-52
2021/04/03 07:42:51;;;;;;;3.10;1.10;;;;;;;;;;5114103;28;20325;-52
2021/04/03 07:45:33;;;;;;;3.47;1.00;;;;;;;;;;5113679;28;20250;-52
2021/04/03 07:48:00;;;;;;;4.13;1.40;;;;;;;;;;5113628;28;20264;-52
2021/04/03 07:50:47;;;;;;;3.83;1.20;;;;;;;;;;5113567;28;20267;-53
2021/04/03 07:53:14;;;;;;;1.93;0.90;;;;;;;;;;5113594;28;20313;-54
2021/04/03 07:55:42;;;;;;;2.30;0.90;;;;;;;;;;5113478;28;20255;-54
2021/04/03 07:58:24;;;;;;;5.30;1.30;;;;;;;;;;5113563;28;20256;-54
2021/04/03 08:00:51;;;;;;;1.47;0.80;;;;;;;;;;5113411;28;20274;-54
2021/04/03 08:03:25;;;;;;;1.17;0.80;;;;;;;;;;5113432;28;20374;-54
2021/04/03 08:05:58;;;;;;;1.47;0.90;;;;;;;;;;5113322;28;20750;-54
2021/04/03 08:08:26;;;;;;;4.27;1.13;;;;;;;;;;5113331;28;20331;-54
2021/04/03 08:11:13;;;;;;;2.63;1.47;;;;;;;;;;5113429;28;20288;-54
2021/04/03 08:13:42;;;;;;;2.10;1.30;;;;;;;;;;5096311;28;20260;-54
2021/04/03 08:16:09;;;;;;;2.27;1.10;;;;;;;;;;5112955;28;20295;-54
2021/04/03 08:18:37;;;;;;;1.53;0.87;;;;;;;;;;5113160;28;20638;-54
2021/04/03 08:21:04;;;;;;;1.50;0.80;;;;;;;;;;5113228;28;20268;-54
2021/04/03 08:23:34;;;;;;;5.20;1.17;;;;;;;;;;5113171;28;20248;-54
2021/04/03 08:26:01;;;;;;;2.23;1.23;;;;;;;;;;5113101;28;20283;-54
2021/04/03 08:28:28;;;;;;;2.33;1.20;;;;;;;;;;5113265;28;20287;-54
2021/04/03 08:30:55;;;;;;;1.90;1.00;;;;;;;;;;5113546;28;20284;-54
2021/04/03 08:33:22;;;;;;;3.70;1.47;;;;;;;;;;5117312;28;20717;-54
2021/04/03 08:35:50;;;;;;;2.87;1.37;;;;;;;;;;5117225;28;20330;-54
2021/04/03 08:38:24;;;;;;;2.53;1.10;;;;;;;;;;5117137;28;20282;-54
2021/04/03 08:40:52;;;;;;;2.97;1.23;;;;;;;;;;5117156;28;20730;-54
2021/04/03 08:43:20;;;;;;;2.43;0.97;;;;;;;;;;5117029;28;20768;-54
2021/04/03 08:45:47;;;;;;;3.77;1.03;;;;;;;;;;5117082;28;20602;-53
2021/04/03 08:48:14;;;;;;;3.17;1.33;;;;;;;;;;5117427;28;20244;-54
2021/04/03 08:50:45;;;;;;;2.40;0.83;;;;;;;;;;5117021;28;20327;-53
2021/04/03 08:53:12;;;;;;;2.90;1.10;;;;;;;;;;5116943;28;20279;-54
2021/04/03 08:55:38;;;;;;;1.53;0.90;;;;;;;;;;5116796;28;20248;-54
2021/04/03 08:58:06;;;;;;;2.07;1.07;;;;;;;;;;5116849;28;20312;-54
2021/04/03 09:00:33;;;;;;;2.27;1.17;;;;;;;;;;5116826;28;20276;-54
2021/04/03 09:03:01;;;;;;;3.53;1.00;;;;;;;;;;5116776;28;20260;-54
2021/04/03 09:05:28;;;;;;;2.37;0.97;;;;;;;;;;5116673;28;20584;-54
2021/04/03 09:07:55;;;;;;;1.70;1.00;;;;;;;;;;5116682;28;20291;-54
2021/04/03 09:10:23;;;;;;;4.27;1.43;;;;;;;;;;5116610;28;20340;-54
2021/04/03 09:12:51;;;;;;;2.50;1.07;;;;;;;;;;5116908;28;20275;-54
2021/04/03 09:15:26;;;;;;;4.63;1.10;;;;;;;;;;5116110;27;20272;-54
2021/04/03 09:17:55;;;;;;;1.83;0.93;;;;;;;;;;5116513;28;20285;-54
2021/04/03 09:20:32;;;;;;;2.20;1.00;;;;;;;;;;5116407;28;20279;-53
2021/04/03 09:23:06;;;;;;;1.10;0.73;;;;;;;;;;5116354;28;20260;-53
2021/04/03 09:25:33;;;;;;;2.07;1.00;;;;;;;;;;5116335;28;20248;-54
2021/04/03 09:28:02;;;;;;;2.73;0.90;;;;;;;;;;5116275;28;20259;-54
2021/04/03 09:30:45;;;;;;;2.90;1.63;;;;;;;;;;5116174;28;20609;-54
2021/04/03 09:33:16;;;;;;;4.27;1.20;;;;;;;;;;5116263;28;20729;-54
2021/04/03 09:35:43;;;;;;;3.80;1.10;;;;;;;;;;5116144;28;20284;-54
2021/04/03 09:38:10;;;;;;;3.20;1.03;;;;;;;;;;5116146;28;20255;-54
2021/04/03 09:40:42;;;;;;;1.87;1.07;;;;;;;;;;5115883;28;20294;-54
2021/04/03 09:43:13;;;;;;;1.70;0.90;;;;;;;;;;5115204;28;20331;-54
2021/04/03 09:45:39;;;;;;;2.30;1.03;;;;;;;;;;5115946;28;20252;-54
2021/04/03 09:48:08;;;;;;;2.37;1.07;;;;;;;;;;5115986;28;20252;-54
2021/04/03 09:50:35;;;;;;;1.40;0.80;;;;;;;;;;5115813;28;20259;-53
2021/04/03 09:53:12;;;;;;;4.60;1.20;;;;;;;;;;5115861;28;20248;-54
2021/04/03 09:55:39;;;;;;;2.00;1.00;;;;;;;;;;5115722;28;20248;-54
2021/04/03 09:58:06;;;;;;;2.70;1.00;;;;;;;;;;5115807;28;20255;-54
2021/04/03 10:00:33;;;;;;;2.37;1.00;;;;;;;;;;5115517;28;20329;-54
2021/04/03 10:03:00;;;;;;;2.83;0.90;;;;;;;;;;5115703;28;20295;-54
2021/04/03 10:05:28;;;;;;;3.07;1.07;;;;;;;;;;5115468;28;20611;-54
2021/04/03 10:07:55;;;;;;;2.43;0.80;;;;;;;;;;5115511;28;20248;-53
2021/04/03 10:10:24;;;;;;;4.53;1.00;;;;;;;;;;5115402;28;20286;-54
2021/04/03 10:12:51;;;;;;;1.37;1.00;;;;;;;;;;5115436;28;20275;-54
2021/04/03 10:15:20;;;;;;;1.30;0.80;;;;;;;;;;5114930;27;20363;-54
2021/04/03 10:17:47;;;;;;;1.37;1.03;;;;;;;;;;5115375;28;20260;-54
2021/04/03 10:20:14;;;;;;;3.50;1.27;;;;;;;;;;5115160;28;20279;-54
2021/04/03 10:22:41;;;;;;;3.80;0.93;;;;;;;;;;5115227;28;20244;-54
2021/04/03 10:25:09;;;;;;;2.93;1.20;;;;;;;;;;5115156;28;20280;-54
2021/04/03 10:27:36;;;;;;;2.77;0.90;;;;;;;;;;5115096;28;20248;-54
2021/04/03 10:30:04;;;;;;;2.43;1.03;;;;;;;;;;5115149;28;20248;-54
2021/04/03 10:32:31;;;;;;;2.27;1.00;;;;;;;;;;5114966;28;20297;-53
2021/04/03 10:34:58;;;;;;;2.53;1.20;;;;;;;;;;5115011;28;20262;-54
2021/04/03 10:37:25;;;;;;;2.47;1.03;;;;;;;;;;5114937;28;20244;-54
2021/04/03 10:39:51;;;;;;;2.70;0.90;;;;;;;;;;5114901;28;20709;-54
2021/04/03 10:42:18;;;;;;;2.13;0.80;;;;;;;;;;5114866;28;20248;-54
2021/04/03 10:44:45;;;;;;;2.10;0.97;;;;;;;;;;5114715;28;20256;-54
2021/04/03 10:47:12;;;;;;;2.03;1.10;;;;;;;;;;5114720;28;20316;-54
2021/04/03 10:49:38;;;;;;;2.07;1.00;;;;;;;;;;5114647;28;20252;-53
2021/04/03 10:52:05;;;;;;;4.77;0.90;;;;;;;;;;5114775;28;20331;-54
2021/04/03 10:54:46;;;;;;;2.70;0.90;;;;;;;;;;5114585;28;20247;-54
2021/04/03 10:57:13;;;;;;;4.90;1.00;;;;;;;;;;5114565;28;20602;-54
2021/04/03 10:59:41;;;;;;;1.80;1.00;;;;;;;;;;5114274;28;20672;-54
2021/04/03 11:02:08;;;;;;;1.23;0.70;;;;;;;;;;5114508;28;20256;-54
2021/04/03 11:04:35;;;;;;;1.67;0.83;;;;;;;;;;5114454;28;20244;-54
2021/04/03 11:07:01;;;;;;;1.13;0.60;;;;;;;;;;5114259;28;20293;-54
2021/04/03 11:09:28;;;;;;;2.17;1.17;;;;;;;;;;5114253;28;20267;-51
2021/04/03 11:11:55;;;;;;;1.23;0.80;;;;;;;;;;5114277;28;20250;-52
2021/04/03 11:14:22;;;;;;;2.17;1.30;;;;;;;;;;5114351;27;20781;-52
2021/04/03 11:16:49;;;;;;;4.13;1.20;;;;;;;;;;5113691;28;20800;-52
2021/04/03 11:19:15;;;;;;;2.17;1.00;;;;;;;;;;5114017;28;20713;-51
2021/04/03 11:21:42;;;;;;;1.83;0.80;;;;;;;;;;5095864;28;20288;-52
2021/04/03 11:24:10;;;;;;;3.83;1.97;;;;;;;;;;5095841;28;20750;-51
2021/04/03 11:26:36;;;;;;;3.13;1.33;;;;;;;;;;5113914;28;20255;-52
2021/04/03 11:29:03;;;;;;;6.70;3.80;;;;;;;;;;5113889;28;20731;-52
2021/04/03 11:31:30;;;;;;;2.80;1.90;;;;;;;;;;5113910;28;20251;-51
2021/04/03 11:33:57;;;;;;;3.93;1.90;;;;;;;;;;5113840;28;20673;-51
2021/04/03 11:36:24;;;;;;;3.80;1.90;;;;;;;;;;5113755;28;20259;-51
2021/04/03 11:38:51;;;;;;;4.27;2.10;;;;;;;;;;5113694;28;20727;-52
2021/04/03 11:41:18;;;;;;;13.70;8.23;;;;;;;;;;5113690;28;20252;-51
2021/04/03 11:43:44;;;;;;;8.20;4.00;;;;;;;;;;5113673;28;20746;-51
2021/04/03 11:46:11;;;;;;;6.93;3.87;;;;;;;;;;5113660;28;20297;-52
2021/04/03 11:48:38;;;;;;;5.93;2.60;;;;;;;;;;5113687;28;20262;-52
2021/04/03 11:51:05;;;;;;;4.30;1.53;;;;;;;;;;5113625;28;20331;-52
2021/04/03 11:53:32;;;;;;;4.67;2.00;;;;;;;;;;5113531;28;20256;-52
2021/04/03 11:55:59;;;;;;;5.27;2.70;;;;;;;;;;5113586;28;20259;-52
2021/04/03 11:58:25;;;;;;;7.10;3.23;;;;;;;;;;5113424;28;20316;-51
2021/04/03 12:00:52;;;;;;;8.50;3.80;;;;;;;;;;5113437;28;20252;-52
2021/04/03 12:03:19;;;;;;;11.47;4.00;;;;;;;;;;5113470;28;20579;-52
2021/04/03 12:05:46;;;;;;;4.40;2.47;;;;;;;;;;5112808;28;20611;-51
2021/04/03 12:08:13;;;;;;;7.87;2.50;;;;;;;;;;5113362;28;20252;-51
2021/04/03 12:10:39;;;;;;;5.20;2.53;;;;;;;;;;5113358;28;20259;-52
2021/04/03 12:13:06;;;;;;;5.20;2.80;;;;;;;;;;5113270;28;20289;-51
2021/04/03 12:15:33;;;;;;;3.97;2.37;;;;;;;;;;5112846;28;20642;-52
2021/04/03 12:18:00;;;;;;;5.37;2.40;;;;;;;;;;5113242;28;20653;-52
2021/04/03 12:20:27;;;;;;;10.70;2.37;;;;;;;;;;5113205;28;20325;-52
2021/04/03 12:22:53;;;;;;;4.87;2.33;;;;;;;;;;5113323;28;20252;-51
2021/04/03 12:25:20;;;;;;;3.30;1.70;;;;;;;;;;5113137;28;20654;-51
2021/04/03 12:27:47;;;;;;;3.03;1.60;;;;;;;;;;5113153;28;20291;-52
2021/04/03 12:30:14;;;;;;;4.13;1.93;;;;;;;;;;5113102;28;20267;-52
2021/04/03 12:32:41;;;;;;;1.80;1.20;;;;;;;;;;5113226;28;20704;-52
2021/04/03 12:35:08;;;;;;;2.50;1.20;;;;;;;;;;5113101;28;20701;-52
2021/04/03 12:37:35;;;;;;;2.63;1.27;;;;;;;;;;5113188;28;20268;-51
2021/04/03 12:40:02;;;;;;;3.10;1.93;;;;;;;;;;5112985;28;20291;-51
2021/04/03 12:42:30;;;;;;;2.87;1.37;;;;;;;;;;5113099;28;20339;-51
2021/04/03 12:44:57;;;;;;;3.33;1.60;;;;;;;;;;5113070;28;20256;-52
2021/04/03 12:47:23;;;;;;;6.53;1.63;;;;;;;;;;5112958;28;20248;-51
2021/04/03 12:49:50;;;;;;;3.33;1.73;;;;;;;;;;5113059;28;20343;-54
2021/04/03 12:52:17;;;;;;;3.73;1.57;;;;;;;;;;5113053;28;20285;-54
2021/04/03 12:54:44;;;;;;;3.80;1.83;;;;;;;;;;5112949;28;20262;-54
2021/04/03 12:57:10;;;;;;;1.90;1.10;;;;;;;;;;5112931;28;20264;-54
2021/04/03 12:59:37;;;;;;;3.17;1.60;;;;;;;;;;5112891;28;20345;-54
2021/04/03 13:02:04;;;;;;;2.50;1.30;;;;;;;;;;5112921;28;20259;-53
2021/04/03 13:04:31;;;;;;;3.27;1.40;;;;;;;;;;5112797;28;20286;-53
2021/04/03 13:06:57;;;;;;;1.73;1.10;;;;;;;;;;5112788;28;20259;-54
2021/04/03 13:09:24;;;;;;;5.23;1.23;;;;;;;;;;5112781;28;20255;-54
2021/04/03 13:11:51;;;;;;;5.23;1.13;;;;;;;;;;5112724;28;20280;-53
2021/04/03 13:14:18;;;;;;;3.20;1.30;;;;;;;;;;5112664;28;20335;-54
2021/04/03 13:16:45;;;;;;;3.73;1.40;;;;;;;;;;5112385;28;20275;-53
2021/04/03 13:19:11;;;;;;;3.80;2.43;;;;;;;;;;5115060;28;20683;-53
2021/04/03 13:21:38;;;;;;;2.63;1.20;;;;;;;;;;5116462;28;20256;-53
2021/04/03 13:24:05;;;;;;;4.67;1.30;;;;;;;;;;5116363;28;20244;-54
2021/04/03 13:26:32;;;;;;;3.63;1.30;;;;;;;;;;5116460;28;20260;-54
2021/04/03 13:28:59;;;;;;;2.93;1.20;;;;;;;;;;5116313;28;20255;-54
2021/04/03 13:31:27;;;;;;;6.27;1.43;;;;;;;;;;5116211;28;20648;-54
2021/04/03 13:33:54;;;;;;;2.87;1.50;;;;;;;;;;5116103;28;20260;-54
2021/04/03 13:36:21;;;;;;;4.73;1.30;;;;;;;;;;5116153;28;20335;-54
2021/04/03 13:38:48;;;;;;;4.67;1.67;;;;;;;;;;5116021;28;20287;-54
2021/04/03 13:41:15;;;;;;;2.80;1.53;;;;;;;;;;5116036;28;20343;-54
2021/04/03 13:43:42;;;;;;;3.47;1.40;;;;;;;;;;5116029;28;20243;-54
2021/04/03 13:46:09;;;;;;;3.63;1.10;;;;;;;;;;5115999;28;20266;-54
2021/04/03 13:48:35;;;;;;;1.63;1.10;;;;;;;;;;5115858;28;20244;-54
2021/04/03 13:51:02;;;;;;;4.47;1.73;;;;;;;;;;5115919;28;20256;-54
2021/04/03 13:53:29;;;;;;;2.83;1.10;;;;;;;;;;5115799;28;20252;-54
2021/04/03 13:55:56;;;;;;;8.67;1.13;;;;;;;;;;5115720;28;20343;-54
2021/04/03 13:58:23;;;;;;;2.17;1.00;;;;;;;;;;5115776;28;20251;-54
2021/04/03 14:00:50;;;;;;;2.23;0.80;;;;;;;;;;5115475;28;20283;-54
2021/04/03 14:03:17;;;;;;;1.33;0.87;;;;;;;;;;5115696;28;20251;-54
2021/04/03 14:05:44;;;;;;;0.93;0.70;;;;;;;;;;5115525;28;20263;-54
2021/04/03 14:08:11;;;;;;;3.80;0.83;;;;;;;;;;5115691;28;20259;-54
2021/04/03 14:10:39;;;;;;;2.70;1.10;;;;;;;;;;5115501;28;20275;-54
2021/04/03 14:13:06;;;;;;;0.93;0.70;;;;;;;;;;5115506;28;20084;-54
2021/04/03 14:15:39;;;;;;;4.77;1.20;;;;;;;;;;5114795;27;20051;-55
2021/04/03 14:18:06;;;;;;;2.87;1.23;;;;;;;;;;5115308;28;20031;-55
2021/04/03 14:20:33;;;;;;;2.20;0.93;;;;;;;;;;5115171;28;20035;-54
2021/04/03 14:22:59;;;;;;;2.20;0.90;;;;;;;;;;5115224;28;20032;-55
2021/04/03 14:25:26;;;;;;;1.43;0.80;;;;;;;;;;5115466;28;20028;-55
2021/04/03 14:27:53;;;;;;;2.60;1.10;;;;;;;;;;5115274;28;20073;-55
2021/04/03 14:30:20;;;;;;;1.67;0.90;;;;;;;;;;5114700;28;20453;-54
2021/04/03 14:32:47;;;;;;;3.10;0.97;;;;;;;;;;5115081;28;20378;-54
2021/04/03 14:35:14;;;;;;;2.30;0.80;;;;;;;;;;5114972;28;20442;-54
2021/04/03 14:37:40;;;;;;;5.90;1.20;;;;;;;;;;5114975;28;20106;-54
2021/04/03 14:40:07;;;;;;;1.57;0.70;;;;;;;;;;5114785;28;20097;-54
2021/04/03 14:42:34;;;;;;;1.97;0.97;;;;;;;;;;5114873;28;20027;-54
2021/04/03 14:45:01;;;;;;;1.60;0.63;;;;;;;;;;5114865;28;20103;-55
2021/04/03 14:47:28;;;;;;;1.33;0.80;;;;;;;;;;5114791;28;20051;-54
2021/04/03 14:49:55;;;;;;;3.77;1.07;;;;;;;;;;5114867;28;20084;-54